sensor_id;sensor_type;location;lat;lon;timestamp;P1;durP1;ratioP1;P2;durP2;ratioP2
29854;SDS011;16733;48.738;9.106;2023-02-14T00:00:54;19.48;;;8.88;;
29854;SDS011;16733;48.738;9.106;2023-02-14T00:06:42;20.83;;;8.77;;
29854;SDS011;16733;48.738;9.106;2023-02-14T00:09:12;18.30;;;8.88;;
29854;SDS011;16733;48.738;9.106;2023-02-14T00:12:34;19.92;;;8.05;;
29854;SDS011;16733;48.738;9.106;2023-02-14T00:14:59;20.02;;;8.63;;
29854;SDS011;16733;48.738;9.106;2023-02-14T00:21:06;15.65;;;7.13;;
29854;SDS011;16733;48.738;9.106;2023-02-14T00:23:31;18.40;;;7.50;;
29854;SDS011;16733;48.738;9.106;2023-02-14T00:29:26;20.63;;;8.13;;
29854;SDS011;16733;48.738;9.106;2023-02-14T00:31:54;15.70;;;7.80;;
29854;SDS011;16733;48.738;9.106;2023-02-14T00:34:20;15.60;;;7.38;;
29854;SDS011;16733;48.738;9.106;2023-02-14T00:36:46;13.73;;;7.38;;
29854;SDS011;16733;48.738;9.106;2023-02-14T00:39:12;16.30;;;7.63;;
29854;SDS011;16733;48.738;9.106;2023-02-14T00:41:39;15.65;;;6.95;;
29854;SDS011;16733;48.738;9.106;2023-02-14T00:44:06;18.15;;;7.72;;
29854;SDS011;16733;48.738;9.106;2023-02-14T00:46:33;20.15;;;7.68;;
29854;SDS011;16733;48.738;9.106;2023-02-14T00:52:21;16.58;;;7.13;;
29854;SDS011;16733;48.738;9.106;2023-02-14T00:54:46;16.98;;;7.72;;
29854;SDS011;16733;48.738;9.106;2023-02-14T00:57:12;18.45;;;8.02;;
29854;SDS011;16733;48.738;9.106;2023-02-14T00:59:38;16.83;;;7.65;;
29854;SDS011;16733;48.738;9.106;2023-02-14T01:02:03;17.55;;;7.85;;
29854;SDS011;16733;48.738;9.106;2023-02-14T01:04:29;15.60;;;8.35;;
29854;SDS011;16733;48.738;9.106;2023-02-14T01:06:54;22.33;;;9.15;;
29854;SDS011;16733;48.738;9.106;2023-02-14T01:09:20;16.48;;;7.50;;
29854;SDS011;16733;48.738;9.106;2023-02-14T01:15:08;16.20;;;7.63;;
29854;SDS011;16733;48.738;9.106;2023-02-14T01:17:33;11.70;;;6.85;;
29854;SDS011;16733;48.738;9.106;2023-02-14T01:20:00;19.85;;;7.93;;
29854;SDS011;16733;48.738;9.106;2023-02-14T01:25:47;18.60;;;7.30;;
29854;SDS011;16733;48.738;9.106;2023-02-14T01:28:13;14.80;;;7.18;;
29854;SDS011;16733;48.738;9.106;2023-02-14T01:34:01;14.10;;;6.95;;
29854;SDS011;16733;48.738;9.106;2023-02-14T01:36:28;16.70;;;6.93;;
29854;SDS011;16733;48.738;9.106;2023-02-14T01:38:56;16.40;;;7.18;;
29854;SDS011;16733;48.738;9.106;2023-02-14T01:44:54;17.52;;;7.15;;
29854;SDS011;16733;48.738;9.106;2023-02-14T01:47:22;13.75;;;6.57;;
29854;SDS011;16733;48.738;9.106;2023-02-14T01:49:51;14.90;;;6.20;;
29854;SDS011;16733;48.738;9.106;2023-02-14T01:52:22;12.53;;;6.70;;
29854;SDS011;16733;48.738;9.106;2023-02-14T01:54:53;14.10;;;6.72;;
29854;SDS011;16733;48.738;9.106;2023-02-14T01:57:23;13.65;;;7.05;;
29854;SDS011;16733;48.738;9.106;2023-02-14T02:03:16;14.30;;;7.10;;
29854;SDS011;16733;48.738;9.106;2023-02-14T02:05:45;15.75;;;7.65;;
29854;SDS011;16733;48.738;9.106;2023-02-14T02:08:14;13.82;;;5.80;;
29854;SDS011;16733;48.738;9.106;2023-02-14T02:14:03;17.08;;;7.45;;
29854;SDS011;16733;48.738;9.106;2023-02-14T02:16:43;12.27;;;6.55;;
29854;SDS011;16733;48.738;9.106;2023-02-14T02:32:51;12.10;;;6.28;;
29854;SDS011;16733;48.738;9.106;2023-02-14T02:36:11;9.60;;;5.15;;
29854;SDS011;16733;48.738;9.106;2023-02-14T02:46:44;13.18;;;6.57;;
29854;SDS011;16733;48.738;9.106;2023-02-14T02:49:25;11.40;;;6.28;;
29854;SDS011;16733;48.738;9.106;2023-02-14T02:55:16;13.10;;;6.82;;
29854;SDS011;16733;48.738;9.106;2023-02-14T02:57:54;12.98;;;6.93;;
29854;SDS011;16733;48.738;9.106;2023-02-14T03:00:21;18.88;;;7.22;;
29854;SDS011;16733;48.738;9.106;2023-02-14T03:06:10;11.60;;;5.45;;
29854;SDS011;16733;48.738;9.106;2023-02-14T03:14:41;14.05;;;6.28;;
29854;SDS011;16733;48.738;9.106;2023-02-14T03:17:27;13.40;;;6.07;;
29854;SDS011;16733;48.738;9.106;2023-02-14T03:20:18;10.50;;;5.53;;
29854;SDS011;16733;48.738;9.106;2023-02-14T03:28:17;13.65;;;6.80;;
29854;SDS011;16733;48.738;9.106;2023-02-14T03:31:02;13.20;;;6.75;;
29854;SDS011;16733;48.738;9.106;2023-02-14T03:33:41;13.68;;;6.80;;
29854;SDS011;16733;48.738;9.106;2023-02-14T03:36:13;13.18;;;6.68;;
29854;SDS011;16733;48.738;9.106;2023-02-14T03:38:46;12.60;;;6.70;;
29854;SDS011;16733;48.738;9.106;2023-02-14T03:41:43;14.18;;;6.28;;
29854;SDS011;16733;48.738;9.106;2023-02-14T03:44:15;12.35;;;6.70;;
29854;SDS011;16733;48.738;9.106;2023-02-14T03:53:30;12.70;;;6.57;;
29854;SDS011;16733;48.738;9.106;2023-02-14T03:58:59;15.10;;;7.32;;
29854;SDS011;16733;48.738;9.106;2023-02-14T04:04:34;15.40;;;7.00;;
29854;SDS011;16733;48.738;9.106;2023-02-14T04:07:45;18.70;;;8.02;;
29854;SDS011;16733;48.738;9.106;2023-02-14T04:10:16;13.05;;;6.85;;
29854;SDS011;16733;48.738;9.106;2023-02-14T04:12:43;18.15;;;7.78;;
29854;SDS011;16733;48.738;9.106;2023-02-14T04:18:30;17.20;;;7.28;;
29854;SDS011;16733;48.738;9.106;2023-02-14T04:21:15;18.05;;;8.00;;
29854;SDS011;16733;48.738;9.106;2023-02-14T04:27:02;14.55;;;6.53;;
29854;SDS011;16733;48.738;9.106;2023-02-14T04:32:57;17.35;;;6.97;;
29854;SDS011;16733;48.738;9.106;2023-02-14T04:35:22;16.83;;;7.45;;
29854;SDS011;16733;48.738;9.106;2023-02-14T04:37:48;14.18;;;7.25;;
29854;SDS011;16733;48.738;9.106;2023-02-14T04:40:13;15.93;;;7.60;;
29854;SDS011;16733;48.738;9.106;2023-02-14T04:42:42;19.30;;;8.70;;
29854;SDS011;16733;48.738;9.106;2023-02-14T04:45:08;17.58;;;8.02;;
29854;SDS011;16733;48.738;9.106;2023-02-14T04:47:34;16.25;;;7.28;;
29854;SDS011;16733;48.738;9.106;2023-02-14T04:50:00;21.88;;;8.73;;
29854;SDS011;16733;48.738;9.106;2023-02-14T04:52:25;15.68;;;7.32;;
29854;SDS011;16733;48.738;9.106;2023-02-14T04:58:13;17.20;;;7.80;;
29854;SDS011;16733;48.738;9.106;2023-02-14T05:00:38;20.33;;;9.02;;
29854;SDS011;16733;48.738;9.106;2023-02-14T05:06:26;18.38;;;7.45;;
29854;SDS011;16733;48.738;9.106;2023-02-14T05:08:53;21.63;;;9.27;;
29854;SDS011;16733;48.738;9.106;2023-02-14T05:11:19;18.00;;;8.75;;
29854;SDS011;16733;48.738;9.106;2023-02-14T05:17:07;18.67;;;8.32;;
29854;SDS011;16733;48.738;9.106;2023-02-14T05:19:32;23.40;;;9.48;;
29854;SDS011;16733;48.738;9.106;2023-02-14T05:21:58;20.02;;;8.50;;
29854;SDS011;16733;48.738;9.106;2023-02-14T05:24:24;22.25;;;9.32;;
29854;SDS011;16733;48.738;9.106;2023-02-14T05:26:49;22.13;;;9.85;;
29854;SDS011;16733;48.738;9.106;2023-02-14T05:29:15;22.20;;;8.68;;
29854;SDS011;16733;48.738;9.106;2023-02-14T05:31:40;20.25;;;9.60;;
29854;SDS011;16733;48.738;9.106;2023-02-14T05:34:06;22.30;;;9.07;;
29854;SDS011;16733;48.738;9.106;2023-02-14T05:43:16;23.17;;;9.32;;
29854;SDS011;16733;48.738;9.106;2023-02-14T05:49:03;22.65;;;9.38;;
29854;SDS011;16733;48.738;9.106;2023-02-14T05:51:29;21.40;;;9.20;;
29854;SDS011;16733;48.738;9.106;2023-02-14T05:53:55;25.23;;;8.88;;
29854;SDS011;16733;48.738;9.106;2023-02-14T05:56:23;14.77;;;7.00;;
29854;SDS011;16733;48.738;9.106;2023-02-14T05:58:49;22.63;;;9.50;;
29854;SDS011;16733;48.738;9.106;2023-02-14T06:01:14;21.40;;;9.07;;
29854;SDS011;16733;48.738;9.106;2023-02-14T06:03:40;22.15;;;9.43;;
29854;SDS011;16733;48.738;9.106;2023-02-14T06:06:06;20.77;;;8.65;;
29854;SDS011;16733;48.738;9.106;2023-02-14T06:08:31;19.95;;;9.23;;
29854;SDS011;16733;48.738;9.106;2023-02-14T06:10:57;24.98;;;10.20;;
29854;SDS011;16733;48.738;9.106;2023-02-14T06:13:22;24.33;;;9.77;;
29854;SDS011;16733;48.738;9.106;2023-02-14T06:15:48;24.10;;;10.55;;
29854;SDS011;16733;48.738;9.106;2023-02-14T06:18:14;21.08;;;9.20;;
29854;SDS011;16733;48.738;9.106;2023-02-14T06:20:40;24.45;;;9.75;;
29854;SDS011;16733;48.738;9.106;2023-02-14T06:23:05;21.40;;;9.70;;
29854;SDS011;16733;48.738;9.106;2023-02-14T06:25:31;24.27;;;9.55;;
29854;SDS011;16733;48.738;9.106;2023-02-14T06:27:57;24.30;;;9.95;;
29854;SDS011;16733;48.738;9.106;2023-02-14T06:30:23;26.15;;;9.82;;
29854;SDS011;16733;48.738;9.106;2023-02-14T06:32:48;21.25;;;9.95;;
29854;SDS011;16733;48.738;9.106;2023-02-14T06:35:14;22.42;;;8.93;;
29854;SDS011;16733;48.738;9.106;2023-02-14T06:37:40;22.90;;;9.32;;
29854;SDS011;16733;48.738;9.106;2023-02-14T06:40:06;22.67;;;9.63;;
29854;SDS011;16733;48.738;9.106;2023-02-14T06:42:33;33.20;;;11.15;;
29854;SDS011;16733;48.738;9.106;2023-02-14T06:44:59;24.00;;;10.88;;
29854;SDS011;16733;48.738;9.106;2023-02-14T06:47:25;28.10;;;10.80;;
29854;SDS011;16733;48.738;9.106;2023-02-14T06:49:50;28.70;;;11.73;;
29854;SDS011;16733;48.738;9.106;2023-02-14T06:52:16;24.52;;;11.43;;
29854;SDS011;16733;48.738;9.106;2023-02-14T06:54:41;29.05;;;10.85;;
29854;SDS011;16733;48.738;9.106;2023-02-14T06:57:07;24.58;;;10.63;;
29854;SDS011;16733;48.738;9.106;2023-02-14T06:59:32;23.45;;;10.63;;
29854;SDS011;16733;48.738;9.106;2023-02-14T07:01:58;24.02;;;9.95;;
29854;SDS011;16733;48.738;9.106;2023-02-14T07:04:24;27.25;;;11.32;;
29854;SDS011;16733;48.738;9.106;2023-02-14T07:06:49;25.48;;;11.00;;
29854;SDS011;16733;48.738;9.106;2023-02-14T07:09:15;30.10;;;11.48;;
29854;SDS011;16733;48.738;9.106;2023-02-14T07:11:42;27.52;;;10.98;;
29854;SDS011;16733;48.738;9.106;2023-02-14T07:14:09;26.58;;;10.45;;
29854;SDS011;16733;48.738;9.106;2023-02-14T07:23:19;20.27;;;10.30;;
29854;SDS011;16733;48.738;9.106;2023-02-14T07:25:44;26.27;;;11.50;;
29854;SDS011;16733;48.738;9.106;2023-02-14T07:28:10;25.55;;;10.32;;
29854;SDS011;16733;48.738;9.106;2023-02-14T07:30:36;27.33;;;11.27;;
29854;SDS011;16733;48.738;9.106;2023-02-14T07:33:01;25.70;;;10.90;;
29854;SDS011;16733;48.738;9.106;2023-02-14T07:35:27;32.60;;;11.52;;
29854;SDS011;16733;48.738;9.106;2023-02-14T07:37:52;23.38;;;10.55;;
29854;SDS011;16733;48.738;9.106;2023-02-14T07:40:18;23.83;;;10.30;;
29854;SDS011;16733;48.738;9.106;2023-02-14T07:42:47;24.77;;;10.90;;
29854;SDS011;16733;48.738;9.106;2023-02-14T07:45:20;25.98;;;11.30;;
29854;SDS011;16733;48.738;9.106;2023-02-14T07:47:47;20.70;;;9.82;;
29854;SDS011;16733;48.738;9.106;2023-02-14T07:50:14;21.25;;;9.57;;
29854;SDS011;16733;48.738;9.106;2023-02-14T07:52:40;28.05;;;11.43;;
29854;SDS011;16733;48.738;9.106;2023-02-14T07:55:06;20.48;;;9.75;;
29854;SDS011;16733;48.738;9.106;2023-02-14T07:57:31;19.70;;;9.80;;
29854;SDS011;16733;48.738;9.106;2023-02-14T07:59:57;22.00;;;10.07;;
29854;SDS011;16733;48.738;9.106;2023-02-14T08:05:48;23.70;;;9.93;;
29854;SDS011;16733;48.738;9.106;2023-02-14T08:08:21;22.33;;;9.82;;
29854;SDS011;16733;48.738;9.106;2023-02-14T08:14:29;26.23;;;9.77;;
29854;SDS011;16733;48.738;9.106;2023-02-14T08:20:04;21.20;;;9.93;;
29854;SDS011;16733;48.738;9.106;2023-02-14T08:22:31;21.15;;;9.77;;
29854;SDS011;16733;48.738;9.106;2023-02-14T08:24:57;24.15;;;9.77;;
29854;SDS011;16733;48.738;9.106;2023-02-14T08:27:22;18.85;;;9.32;;
29854;SDS011;16733;48.738;9.106;2023-02-14T08:33:10;20.20;;;9.38;;
29854;SDS011;16733;48.738;9.106;2023-02-14T08:35:36;21.10;;;10.25;;
29854;SDS011;16733;48.738;9.106;2023-02-14T08:38:02;22.58;;;10.65;;
29854;SDS011;16733;48.738;9.106;2023-02-14T08:40:28;22.05;;;9.40;;
29854;SDS011;16733;48.738;9.106;2023-02-14T08:42:54;21.85;;;9.30;;
29854;SDS011;16733;48.738;9.106;2023-02-14T08:45:19;20.90;;;10.75;;
29854;SDS011;16733;48.738;9.106;2023-02-14T08:47:45;20.33;;;10.15;;
29854;SDS011;16733;48.738;9.106;2023-02-14T08:53:33;22.05;;;9.70;;
29854;SDS011;16733;48.738;9.106;2023-02-14T08:56:06;23.00;;;10.75;;
29854;SDS011;16733;48.738;9.106;2023-02-14T08:58:33;23.65;;;9.93;;
29854;SDS011;16733;48.738;9.106;2023-02-14T09:01:00;20.30;;;9.98;;
29854;SDS011;16733;48.738;9.106;2023-02-14T09:03:26;17.63;;;10.05;;
29854;SDS011;16733;48.738;9.106;2023-02-14T09:05:51;20.45;;;10.93;;
29854;SDS011;16733;48.738;9.106;2023-02-14T09:08:17;21.45;;;9.95;;
29854;SDS011;16733;48.738;9.106;2023-02-14T09:10:42;18.98;;;9.85;;
29854;SDS011;16733;48.738;9.106;2023-02-14T09:13:08;22.33;;;10.70;;
29854;SDS011;16733;48.738;9.106;2023-02-14T09:15:34;23.65;;;10.35;;
29854;SDS011;16733;48.738;9.106;2023-02-14T09:17:59;19.05;;;9.77;;
29854;SDS011;16733;48.738;9.106;2023-02-14T09:20:25;22.75;;;10.52;;
29854;SDS011;16733;48.738;9.106;2023-02-14T09:22:53;19.48;;;10.15;;
29854;SDS011;16733;48.738;9.106;2023-02-14T09:25:19;22.35;;;10.32;;
29854;SDS011;16733;48.738;9.106;2023-02-14T09:33:41;22.58;;;10.25;;
29854;SDS011;16733;48.738;9.106;2023-02-14T09:39:29;26.25;;;10.70;;
29854;SDS011;16733;48.738;9.106;2023-02-14T09:45:07;20.17;;;9.70;;
29854;SDS011;16733;48.738;9.106;2023-02-14T09:48:00;21.00;;;10.63;;
29854;SDS011;16733;48.738;9.106;2023-02-14T09:50:56;18.70;;;9.10;;
29854;SDS011;16733;48.738;9.106;2023-02-14T09:53:30;25.30;;;10.80;;
29854;SDS011;16733;48.738;9.106;2023-02-14T09:56:07;20.92;;;10.88;;
29854;SDS011;16733;48.738;9.106;2023-02-14T10:01:35;21.63;;;9.68;;
29854;SDS011;16733;48.738;9.106;2023-02-14T10:06:49;19.45;;;9.30;;
29854;SDS011;16733;48.738;9.106;2023-02-14T10:12:19;27.08;;;10.48;;
29854;SDS011;16733;48.738;9.106;2023-02-14T10:14:52;34.95;;;10.55;;
29854;SDS011;16733;48.738;9.106;2023-02-14T10:17:23;24.50;;;11.23;;
29854;SDS011;16733;48.738;9.106;2023-02-14T10:26:42;18.13;;;8.75;;
29854;SDS011;16733;48.738;9.106;2023-02-14T10:29:05;16.92;;;9.48;;
29854;SDS011;16733;48.738;9.106;2023-02-14T10:37:51;24.88;;;9.65;;
29854;SDS011;16733;48.738;9.106;2023-02-14T10:43:32;16.05;;;9.25;;
29854;SDS011;16733;48.738;9.106;2023-02-14T10:46:18;25.70;;;10.18;;
29854;SDS011;16733;48.738;9.106;2023-02-14T10:49:48;29.13;;;9.63;;
29854;SDS011;16733;48.738;9.106;2023-02-14T10:55:14;19.30;;;10.32;;
29854;SDS011;16733;48.738;9.106;2023-02-14T10:57:45;20.55;;;9.38;;
29854;SDS011;16733;48.738;9.106;2023-02-14T11:03:37;17.48;;;9.80;;
29854;SDS011;16733;48.738;9.106;2023-02-14T11:06:05;18.88;;;9.75;;
29854;SDS011;16733;48.738;9.106;2023-02-14T11:08:37;17.77;;;9.85;;
29854;SDS011;16733;48.738;9.106;2023-02-14T11:11:13;33.05;;;10.50;;
29854;SDS011;16733;48.738;9.106;2023-02-14T11:16:56;21.80;;;10.27;;
29854;SDS011;16733;48.738;9.106;2023-02-14T11:21:49;22.25;;;10.35;;
29854;SDS011;16733;48.738;9.106;2023-02-14T11:24:17;18.55;;;9.05;;
29854;SDS011;16733;48.738;9.106;2023-02-14T11:26:48;27.95;;;9.40;;
29854;SDS011;16733;48.738;9.106;2023-02-14T11:29:20;15.45;;;9.68;;
29854;SDS011;16733;48.738;9.106;2023-02-14T11:31:53;19.98;;;9.07;;
29854;SDS011;16733;48.738;9.106;2023-02-14T11:34:31;14.98;;;9.15;;
29854;SDS011;16733;48.738;9.106;2023-02-14T11:37:00;20.67;;;9.13;;
29854;SDS011;16733;48.738;9.106;2023-02-14T11:39:31;16.38;;;8.85;;
29854;SDS011;16733;48.738;9.106;2023-02-14T11:42:00;18.02;;;8.70;;
29854;SDS011;16733;48.738;9.106;2023-02-14T11:44:29;22.35;;;9.25;;
29854;SDS011;16733;48.738;9.106;2023-02-14T11:46:57;19.05;;;8.93;;
29854;SDS011;16733;48.738;9.106;2023-02-14T11:50:21;16.20;;;8.93;;
29854;SDS011;16733;48.738;9.106;2023-02-14T11:52:50;16.48;;;8.77;;
29854;SDS011;16733;48.738;9.106;2023-02-14T11:55:25;35.40;;;9.80;;
29854;SDS011;16733;48.738;9.106;2023-02-14T11:58:32;16.25;;;8.45;;
29854;SDS011;16733;48.738;9.106;2023-02-14T12:01:02;15.60;;;9.23;;
29854;SDS011;16733;48.738;9.106;2023-02-14T12:03:31;20.25;;;9.27;;
29854;SDS011;16733;48.738;9.106;2023-02-14T12:09:31;13.18;;;8.55;;
29854;SDS011;16733;48.738;9.106;2023-02-14T12:14:31;17.27;;;8.63;;
29854;SDS011;16733;48.738;9.106;2023-02-14T12:17:13;17.40;;;9.02;;
29854;SDS011;16733;48.738;9.106;2023-02-14T12:22:21;13.68;;;8.43;;
29854;SDS011;16733;48.738;9.106;2023-02-14T12:24:59;14.13;;;8.20;;
29854;SDS011;16733;48.738;9.106;2023-02-14T12:30:32;16.80;;;9.05;;
29854;SDS011;16733;48.738;9.106;2023-02-14T12:39:07;17.60;;;10.23;;
29854;SDS011;16733;48.738;9.106;2023-02-14T12:50:24;18.27;;;10.77;;
29854;SDS011;16733;48.738;9.106;2023-02-14T12:53:02;20.35;;;10.80;;
29854;SDS011;16733;48.738;9.106;2023-02-14T12:58:45;20.35;;;10.98;;
29854;SDS011;16733;48.738;9.106;2023-02-14T13:04:21;21.77;;;9.48;;
29854;SDS011;16733;48.738;9.106;2023-02-14T13:07:07;19.45;;;9.70;;
29854;SDS011;16733;48.738;9.106;2023-02-14T13:15:13;20.45;;;10.18;;
29854;SDS011;16733;48.738;9.106;2023-02-14T13:17:54;22.23;;;11.70;;
29854;SDS011;16733;48.738;9.106;2023-02-14T13:22:56;31.30;;;12.00;;
29854;SDS011;16733;48.738;9.106;2023-02-14T13:26:21;16.77;;;9.82;;
29854;SDS011;16733;48.738;9.106;2023-02-14T13:28:52;21.67;;;9.97;;
29854;SDS011;16733;48.738;9.106;2023-02-14T13:34:48;21.85;;;10.18;;
29854;SDS011;16733;48.738;9.106;2023-02-14T13:37:15;22.88;;;10.13;;
29854;SDS011;16733;48.738;9.106;2023-02-14T13:48:18;19.42;;;10.27;;
29854;SDS011;16733;48.738;9.106;2023-02-14T13:50:56;18.52;;;10.23;;
29854;SDS011;16733;48.738;9.106;2023-02-14T13:58:52;18.48;;;10.50;;
29854;SDS011;16733;48.738;9.106;2023-02-14T14:01:34;19.45;;;9.70;;
29854;SDS011;16733;48.738;9.106;2023-02-14T14:20:47;38.72;;;11.30;;
29854;SDS011;16733;48.738;9.106;2023-02-14T14:23:24;17.38;;;9.80;;
29854;SDS011;16733;48.738;9.106;2023-02-14T14:26:41;19.65;;;10.23;;
29854;SDS011;16733;48.738;9.106;2023-02-14T14:29:24;22.20;;;11.10;;
29854;SDS011;16733;48.738;9.106;2023-02-14T14:35:22;23.10;;;11.02;;
29854;SDS011;16733;48.738;9.106;2023-02-14T14:43:38;27.75;;;12.68;;
29854;SDS011;16733;48.738;9.106;2023-02-14T14:46:07;31.55;;;11.23;;
29854;SDS011;16733;48.738;9.106;2023-02-14T14:53:53;26.20;;;11.75;;
29854;SDS011;16733;48.738;9.106;2023-02-14T14:56:23;25.92;;;11.88;;
29854;SDS011;16733;48.738;9.106;2023-02-14T14:58:51;28.75;;;11.43;;
29854;SDS011;16733;48.738;9.106;2023-02-14T15:01:30;19.67;;;10.70;;
29854;SDS011;16733;48.738;9.106;2023-02-14T15:06:38;22.63;;;11.32;;
29854;SDS011;16733;48.738;9.106;2023-02-14T15:11:46;22.00;;;12.55;;
29854;SDS011;16733;48.738;9.106;2023-02-14T15:14:31;19.05;;;12.32;;
29854;SDS011;16733;48.738;9.106;2023-02-14T15:17:04;22.40;;;12.05;;
29854;SDS011;16733;48.738;9.106;2023-02-14T15:19:40;23.90;;;10.75;;
29854;SDS011;16733;48.738;9.106;2023-02-14T15:22:58;21.33;;;11.77;;
29854;SDS011;16733;48.738;9.106;2023-02-14T15:25:27;24.52;;;11.27;;
29854;SDS011;16733;48.738;9.106;2023-02-14T15:31:20;24.17;;;12.93;;
29854;SDS011;16733;48.738;9.106;2023-02-14T15:33:47;28.85;;;12.55;;
29854;SDS011;16733;48.738;9.106;2023-02-14T15:36:21;18.88;;;12.00;;
29854;SDS011;16733;48.738;9.106;2023-02-14T15:38:48;21.95;;;12.38;;
29854;SDS011;16733;48.738;9.106;2023-02-14T15:41:15;31.08;;;12.63;;
29854;SDS011;16733;48.738;9.106;2023-02-14T15:43:41;21.15;;;12.02;;
29854;SDS011;16733;48.738;9.106;2023-02-14T15:52:13;22.60;;;11.80;;
29854;SDS011;16733;48.738;9.106;2023-02-14T15:54:41;22.10;;;12.43;;
29854;SDS011;16733;48.738;9.106;2023-02-14T15:57:23;25.05;;;13.18;;
29854;SDS011;16733;48.738;9.106;2023-02-14T15:59:51;33.47;;;17.35;;
29854;SDS011;16733;48.738;9.106;2023-02-14T16:05:02;29.55;;;14.18;;
29854;SDS011;16733;48.738;9.106;2023-02-14T16:13:37;27.75;;;14.75;;
29854;SDS011;16733;48.738;9.106;2023-02-14T16:16:11;25.73;;;12.13;;
29854;SDS011;16733;48.738;9.106;2023-02-14T16:21:13;32.67;;;15.57;;
29854;SDS011;16733;48.738;9.106;2023-02-14T16:29:56;32.08;;;12.70;;
29854;SDS011;16733;48.738;9.106;2023-02-14T16:32:22;33.15;;;13.23;;
29854;SDS011;16733;48.738;9.106;2023-02-14T16:34:48;34.05;;;14.82;;
29854;SDS011;16733;48.738;9.106;2023-02-14T16:37:18;32.63;;;12.60;;
29854;SDS011;16733;48.738;9.106;2023-02-14T16:39:55;43.20;;;13.30;;
29854;SDS011;16733;48.738;9.106;2023-02-14T16:42:23;38.80;;;13.15;;
29854;SDS011;16733;48.738;9.106;2023-02-14T16:44:49;31.15;;;12.77;;
29854;SDS011;16733;48.738;9.106;2023-02-14T16:50:37;27.75;;;15.20;;
29854;SDS011;16733;48.738;9.106;2023-02-14T16:53:11;26.02;;;13.32;;
29854;SDS011;16733;48.738;9.106;2023-02-14T16:59:07;31.70;;;12.40;;
29854;SDS011;16733;48.738;9.106;2023-02-14T17:01:33;26.08;;;12.80;;
29854;SDS011;16733;48.738;9.106;2023-02-14T17:07:20;25.83;;;12.70;;
29854;SDS011;16733;48.738;9.106;2023-02-14T17:09:47;26.27;;;12.48;;
29854;SDS011;16733;48.738;9.106;2023-02-14T17:15:38;25.65;;;11.50;;
29854;SDS011;16733;48.738;9.106;2023-02-14T17:18:06;30.40;;;12.55;;
29854;SDS011;16733;48.738;9.106;2023-02-14T17:23:58;21.48;;;11.25;;
29854;SDS011;16733;48.738;9.106;2023-02-14T17:26:23;23.85;;;12.70;;
29854;SDS011;16733;48.738;9.106;2023-02-14T17:32:11;19.38;;;10.35;;
29854;SDS011;16733;48.738;9.106;2023-02-14T17:34:37;22.52;;;10.73;;
29854;SDS011;16733;48.738;9.106;2023-02-14T17:37:03;27.70;;;12.40;;
29854;SDS011;16733;48.738;9.106;2023-02-14T17:42:51;23.95;;;11.10;;
29854;SDS011;16733;48.738;9.106;2023-02-14T17:45:16;25.55;;;13.20;;
29854;SDS011;16733;48.738;9.106;2023-02-14T17:51:04;24.85;;;11.52;;
29854;SDS011;16733;48.738;9.106;2023-02-14T17:53:32;25.20;;;11.57;;
29854;SDS011;16733;48.738;9.106;2023-02-14T17:59:20;22.88;;;11.07;;
29854;SDS011;16733;48.738;9.106;2023-02-14T18:01:46;23.77;;;10.65;;
29854;SDS011;16733;48.738;9.106;2023-02-14T18:04:11;24.65;;;12.13;;
29854;SDS011;16733;48.738;9.106;2023-02-14T18:06:37;26.55;;;12.60;;
29854;SDS011;16733;48.738;9.106;2023-02-14T18:09:04;24.02;;;12.13;;
29854;SDS011;16733;48.738;9.106;2023-02-14T18:11:30;22.90;;;11.88;;
29854;SDS011;16733;48.738;9.106;2023-02-14T18:13:56;21.10;;;10.35;;
29854;SDS011;16733;48.738;9.106;2023-02-14T18:16:23;22.85;;;10.85;;
29854;SDS011;16733;48.738;9.106;2023-02-14T18:22:11;23.48;;;10.85;;
29854;SDS011;16733;48.738;9.106;2023-02-14T18:24:37;22.65;;;11.07;;
29854;SDS011;16733;48.738;9.106;2023-02-14T18:27:03;19.63;;;10.35;;
29854;SDS011;16733;48.738;9.106;2023-02-14T18:29:30;20.27;;;10.23;;
29854;SDS011;16733;48.738;9.106;2023-02-14T18:31:56;26.15;;;9.95;;
29854;SDS011;16733;48.738;9.106;2023-02-14T18:34:21;22.38;;;10.65;;
29854;SDS011;16733;48.738;9.106;2023-02-14T18:36:47;19.05;;;10.02;;
29854;SDS011;16733;48.738;9.106;2023-02-14T18:39:13;18.90;;;9.23;;
29854;SDS011;16733;48.738;9.106;2023-02-14T18:41:39;18.13;;;9.25;;
29854;SDS011;16733;48.738;9.106;2023-02-14T18:44:04;28.05;;;11.65;;
29854;SDS011;16733;48.738;9.106;2023-02-14T18:46:31;25.17;;;9.85;;
29854;SDS011;16733;48.738;9.106;2023-02-14T18:48:59;23.17;;;9.68;;
29854;SDS011;16733;48.738;9.106;2023-02-14T18:51:27;22.05;;;9.63;;
29854;SDS011;16733;48.738;9.106;2023-02-14T18:53:56;25.30;;;10.15;;
29854;SDS011;16733;48.738;9.106;2023-02-14T18:59:45;36.00;;;12.13;;
29854;SDS011;16733;48.738;9.106;2023-02-14T19:02:10;21.90;;;10.07;;
29854;SDS011;16733;48.738;9.106;2023-02-14T19:04:36;25.88;;;11.65;;
29854;SDS011;16733;48.738;9.106;2023-02-14T19:07:01;21.90;;;11.02;;
29854;SDS011;16733;48.738;9.106;2023-02-14T19:09:28;22.40;;;10.48;;
29854;SDS011;16733;48.738;9.106;2023-02-14T19:11:54;21.13;;;10.35;;
29854;SDS011;16733;48.738;9.106;2023-02-14T19:14:23;23.38;;;11.40;;
29854;SDS011;16733;48.738;9.106;2023-02-14T19:16:49;26.77;;;11.55;;
29854;SDS011;16733;48.738;9.106;2023-02-14T19:22:39;21.88;;;10.13;;
29854;SDS011;16733;48.738;9.106;2023-02-14T19:25:05;24.80;;;10.02;;
29854;SDS011;16733;48.738;9.106;2023-02-14T19:27:32;20.48;;;9.13;;
29854;SDS011;16733;48.738;9.106;2023-02-14T19:30:36;16.05;;;8.80;;
29854;SDS011;16733;48.738;9.106;2023-02-14T19:33:02;17.65;;;9.00;;
29854;SDS011;16733;48.738;9.106;2023-02-14T19:35:28;19.85;;;9.35;;
29854;SDS011;16733;48.738;9.106;2023-02-14T19:37:53;19.92;;;8.45;;
29854;SDS011;16733;48.738;9.106;2023-02-14T19:40:19;19.75;;;9.23;;
29854;SDS011;16733;48.738;9.106;2023-02-14T19:42:45;21.30;;;9.07;;
29854;SDS011;16733;48.738;9.106;2023-02-14T19:45:11;17.13;;;8.60;;
29854;SDS011;16733;48.738;9.106;2023-02-14T19:47:36;20.25;;;8.50;;
29854;SDS011;16733;48.738;9.106;2023-02-14T19:50:02;21.05;;;8.93;;
29854;SDS011;16733;48.738;9.106;2023-02-14T19:52:29;18.77;;;8.98;;
29854;SDS011;16733;48.738;9.106;2023-02-14T19:54:54;20.63;;;10.00;;
29854;SDS011;16733;48.738;9.106;2023-02-14T19:57:21;20.48;;;9.27;;
29854;SDS011;16733;48.738;9.106;2023-02-14T19:59:47;20.67;;;9.57;;
29854;SDS011;16733;48.738;9.106;2023-02-14T20:02:13;19.25;;;8.65;;
29854;SDS011;16733;48.738;9.106;2023-02-14T20:04:39;25.63;;;9.68;;
29854;SDS011;16733;48.738;9.106;2023-02-14T20:07:05;22.70;;;9.80;;
29854;SDS011;16733;48.738;9.106;2023-02-14T20:09:31;22.52;;;9.25;;
29854;SDS011;16733;48.738;9.106;2023-02-14T20:11:57;19.83;;;9.32;;
29854;SDS011;16733;48.738;9.106;2023-02-14T20:14:23;23.52;;;9.65;;
29854;SDS011;16733;48.738;9.106;2023-02-14T20:17:00;20.60;;;10.32;;
29854;SDS011;16733;48.738;9.106;2023-02-14T20:19:29;23.95;;;11.18;;
29854;SDS011;16733;48.738;9.106;2023-02-14T20:25:18;20.27;;;10.88;;
29854;SDS011;16733;48.738;9.106;2023-02-14T20:27:44;23.35;;;10.27;;
29854;SDS011;16733;48.738;9.106;2023-02-14T20:30:10;23.70;;;10.82;;
29854;SDS011;16733;48.738;9.106;2023-02-14T20:32:36;28.20;;;10.60;;
29854;SDS011;16733;48.738;9.106;2023-02-14T20:41:46;21.40;;;11.23;;
29854;SDS011;16733;48.738;9.106;2023-02-14T20:44:15;19.92;;;10.25;;
29854;SDS011;16733;48.738;9.106;2023-02-14T20:50:06;21.33;;;11.13;;